Time;durP1;ratioP1;P1;durP2;ratioP2;P2;SDS_P1;SDS_P2;PMS_P1;PMS_P2;Temp;Humidity;BMP_temperature;BMP_pressure;BME280_temperature;BME280_humidity;BME280_pressure;Samples;Min_cycle;Max_cycle;Signal;HPM_P1;HPM_P2
2022/05/22 00:02:17;;;;;;;4.72;2.95;;;8.50;99.90;;;;;;5010791;28;20496;-83
2022/05/22 00:04:45;;;;;;;4.95;3.00;;;8.50;99.90;;;;;;5011950;28;20427;-87
2022/05/22 00:07:12;;;;;;;4.90;2.90;;;8.40;99.90;;;;;;5013158;28;20437;-85
2022/05/22 00:09:40;;;;;;;4.47;3.20;;;8.40;99.90;;;;;;5004119;28;20806;-85
2022/05/22 00:12:10;;;;;;;5.28;3.03;;;8.40;99.90;;;;;;5007123;28;20446;-85
2022/05/22 00:14:39;;;;;;;4.53;2.90;;;8.30;99.90;;;;;;5003959;28;20472;-84
2022/05/22 00:17:08;;;;;;;4.10;2.75;;;8.30;99.90;;;;;;5013059;28;21065;-82
2022/05/22 00:19:37;;;;;;;7.68;5.07;;;8.20;99.90;;;;;;5000160;28;20836;-85
2022/05/22 00:22:06;;;;;;;7.47;3.55;;;8.30;99.90;;;;;;5001951;28;20409;-85
2022/05/22 00:24:36;;;;;;;5.75;3.10;;;8.30;99.90;;;;;;5003018;28;20831;-85
2022/05/22 00:27:04;;;;;;;4.72;3.10;;;8.30;99.90;;;;;;5006270;28;20431;-84
2022/05/22 00:29:34;;;;;;;5.60;3.28;;;8.20;99.90;;;;;;5009109;28;20416;-85
2022/05/22 00:32:03;;;;;;;4.97;2.95;;;8.20;99.90;;;;;;5002716;28;20433;-84
2022/05/22 00:34:31;;;;;;;4.20;2.90;;;8.10;99.90;;;;;;5010687;28;20497;-84
2022/05/22 00:36:58;;;;;;;5.18;2.75;;;8.10;99.90;;;;;;5042619;28;20407;-85
2022/05/22 00:39:26;;;;;;;5.38;3.00;;;8.10;99.90;;;;;;5006326;28;20434;-85
2022/05/22 00:41:56;;;;;;;4.85;2.58;;;8.10;99.90;;;;;;5001888;28;20418;-86
2022/05/22 00:44:24;;;;;;;6.03;3.10;;;8.10;99.90;;;;;;5007204;28;20482;-84
2022/05/22 00:46:54;;;;;;;6.13;2.60;;;8.10;99.90;;;;;;5009153;28;20517;-84
2022/05/22 00:49:30;;;;;;;3.60;2.80;;;8.10;99.90;;;;;;5017520;28;20759;-86
2022/05/22 00:52:03;;;;;;;4.80;2.80;;;7.90;99.90;;;;;;5025788;28;20405;-86
2022/05/22 00:54:48;;;;;;;6.20;2.57;;;7.90;99.90;;;;;;5023190;28;20430;-85
2022/05/22 00:57:26;;;;;;;6.15;2.88;;;7.80;99.90;;;;;;5011217;28;20484;-84
2022/05/22 01:00:00;;;;;;;4.55;2.90;;;7.90;99.90;;;;;;5008920;28;20446;-86
2022/05/22 01:03:26;;;;;;;4.63;2.60;;;7.70;99.90;;;;;;5016587;28;20750;-86
2022/05/22 01:05:17;;;;;;;5.40;2.92;;;7.70;99.90;;;;;;5009633;28;20435;-84
2022/05/22 01:07:46;;;;;;;3.40;2.60;;;7.50;99.90;;;;;;5019988;28;20395;-83
2022/05/22 01:10:15;;;;;;;5.00;2.60;;;7.40;99.90;;;;;;5011860;28;20413;-84
2022/05/22 01:12:44;;;;;;;4.70;2.70;;;7.50;99.90;;;;;;5010320;28;20506;-84
2022/05/22 01:15:14;;;;;;;5.25;2.33;;;7.50;99.90;;;;;;5034066;28;20395;-85
2022/05/22 01:17:47;;;;;;;5.07;2.50;;;7.50;99.90;;;;;;5031969;28;20435;-85
2022/05/22 01:20:17;;;;;;;5.03;2.40;;;7.40;99.90;;;;;;5030426;27;20880;-84
2022/05/22 01:22:44;;;;;;;4.80;2.70;;;7.50;99.90;;;;;;4998827;28;20435;-85
2022/05/22 01:25:12;;;;;;;3.33;2.35;;;7.30;99.90;;;;;;5014013;28;20501;-86
2022/05/22 01:27:40;;;;;;;3.73;2.60;;;7.30;99.90;;;;;;5049245;28;20404;-85
2022/05/22 01:30:24;;;;;;;5.32;2.40;;;7.30;99.90;;;;;;5012303;28;20761;-86
2022/05/22 01:32:57;;;;;;;4.85;2.40;;;7.20;99.90;;;;;;5019870;28;20405;-84
2022/05/22 01:35:27;;;;;;;6.13;2.50;;;7.20;99.90;;;;;;5048366;28;20422;-84
2022/05/22 01:37:59;;;;;;;4.30;2.25;;;7.20;99.90;;;;;;5018091;28;20414;-84
2022/05/22 01:40:26;;;;;;;3.30;2.10;;;7.10;99.90;;;;;;5031433;28;20412;-85
2022/05/22 01:42:55;;;;;;;3.87;2.50;;;7.10;99.90;;;;;;5017254;28;20403;-85
2022/05/22 01:45:26;;;;;;;4.70;2.80;;;7.00;99.90;;;;;;5018974;28;20814;-84
2022/05/22 01:47:55;;;;;;;5.65;2.60;;;7.10;99.90;;;;;;5011069;28;20504;-85
2022/05/22 01:50:33;;;;;;;5.05;2.75;;;7.00;99.90;;;;;;5019944;28;20526;-85
2022/05/22 01:53:02;;;;;;;3.75;2.42;;;6.90;99.90;;;;;;5019270;28;20468;-84
2022/05/22 01:55:30;;;;;;;5.57;2.50;;;6.90;99.90;;;;;;5020147;28;20399;-84
2022/05/22 01:58:00;;;;;;;4.78;2.20;;;6.90;99.90;;;;;;5010305;28;20417;-85
2022/05/22 02:00:30;;;;;;;5.47;2.22;;;6.90;99.90;;;;;;5012125;28;20385;-84
2022/05/22 02:02:59;;;;;;;6.07;2.50;;;6.80;99.90;;;;;;5045665;28;20456;-85
2022/05/22 02:05:31;;;;;;;4.93;2.40;;;6.90;99.90;;;;;;5012726;28;20494;-85
2022/05/22 02:08:20;;;;;;;4.30;2.53;;;6.90;99.90;;;;;;5005192;28;20791;-84
2022/05/22 02:11:01;;;;;;;5.07;2.28;;;6.90;99.90;;;;;;5011900;28;20435;-83
2022/05/22 02:13:33;;;;;;;5.38;2.35;;;6.80;99.90;;;;;;4995788;28;20411;-84
2022/05/22 02:16:01;;;;;;;4.13;2.30;;;6.60;99.90;;;;;;5015164;28;20405;-85
2022/05/22 02:18:31;;;;;;;4.68;2.33;;;6.60;99.90;;;;;;5018226;28;20408;-85
2022/05/22 02:20:59;;;;;;;3.53;2.20;;;6.60;99.90;;;;;;5020269;28;21006;-85
2022/05/22 02:23:31;;;;;;;5.80;2.40;;;6.40;99.90;;;;;;5014223;28;20412;-85
2022/05/22 02:26:02;;;;;;;3.55;2.22;;;6.50;99.90;;;;;;5008809;28;20818;-85
2022/05/22 02:28:31;;;;;;;4.78;2.20;;;6.50;99.90;;;;;;5018868;28;20421;-85
2022/05/22 02:31:01;;;;;;;3.80;2.17;;;6.40;99.90;;;;;;5017743;28;21226;-84
2022/05/22 02:33:31;;;;;;;3.90;2.47;;;6.60;99.90;;;;;;5019763;28;20399;-85
2022/05/22 02:36:06;;;;;;;4.28;2.20;;;6.50;99.90;;;;;;5016065;28;20772;-85
2022/05/22 02:38:35;;;;;;;5.80;2.60;;;6.50;99.90;;;;;;5045454;28;20486;-85
2022/05/22 02:41:12;;;;;;;4.38;2.63;;;6.40;99.90;;;;;;5020450;28;20951;-84
2022/05/22 02:43:44;;;;;;;5.38;2.28;;;6.50;99.90;;;;;;5032252;28;20401;-86
2022/05/22 02:46:17;;;;;;;6.87;2.40;;;6.50;99.90;;;;;;4998894;28;20420;-85
2022/05/22 02:48:47;;;;;;;3.20;2.10;;;6.60;99.90;;;;;;5052487;28;20979;-85
2022/05/22 02:51:21;;;;;;;3.83;2.30;;;6.50;99.90;;;;;;5028975;28;20522;-85
2022/05/22 02:53:49;;;;;;;4.70;2.27;;;6.40;99.90;;;;;;5017400;28;20402;-84
2022/05/22 02:56:23;;;;;;;4.28;2.40;;;6.50;99.90;;;;;;5012126;28;20412;-84
2022/05/22 02:59:15;;;;;;;4.35;2.45;;;6.40;99.90;;;;;;5027709;28;20404;-85
2022/05/22 03:02:05;;;;;;;2.90;2.15;;;6.50;99.90;;;;;;5009146;28;20421;-85
2022/05/22 03:04:34;;;;;;;6.32;2.45;;;6.50;99.90;;;;;;5019384;28;20398;-85
2022/05/22 03:07:12;;;;;;;4.70;2.20;;;6.40;99.90;;;;;;5044288;28;20410;-83
2022/05/22 03:09:43;;;;;;;5.38;2.15;;;6.40;99.90;;;;;;4998404;28;20412;-84
2022/05/22 03:12:23;;;;;;;3.38;2.00;;;6.30;99.90;;;;;;5006188;28;20453;-86
2022/05/22 03:14:57;;;;;;;3.30;2.10;;;6.30;99.90;;;;;;5049769;28;20449;-85
2022/05/22 03:17:26;;;;;;;4.95;2.10;;;6.30;99.90;;;;;;5015330;28;20419;-84
2022/05/22 03:19:56;;;;;;;4.28;2.22;;;6.30;99.90;;;;;;5012382;28;20399;-84
2022/05/22 03:22:24;;;;;;;4.47;2.40;;;6.30;99.90;;;;;;5038875;28;20751;-85
2022/05/22 03:24:52;;;;;;;4.47;2.03;;;6.30;99.90;;;;;;5018406;28;20393;-84
2022/05/22 03:27:21;;;;;;;4.32;2.22;;;6.30;99.90;;;;;;5010417;28;20781;-84
2022/05/22 03:29:52;;;;;;;4.30;2.17;;;6.30;99.90;;;;;;5005185;28;20412;-84
2022/05/22 03:32:20;;;;;;;5.22;2.42;;;6.30;99.90;;;;;;5016913;28;20406;-86
2022/05/22 03:34:56;;;;;;;5.85;2.30;;;6.30;99.90;;;;;;5014122;28;20448;-84
2022/05/22 03:37:24;;;;;;;4.93;1.88;;;6.40;99.90;;;;;;5011529;28;20809;-85
2022/05/22 03:40:00;;;;;;;4.93;2.20;;;6.40;99.90;;;;;;5014931;28;20414;-86
2022/05/22 03:42:29;;;;;;;4.22;2.15;;;6.40;99.90;;;;;;5020169;28;20498;-84
2022/05/22 03:44:57;;;;;;;5.10;2.40;;;6.40;99.90;;;;;;5016828;28;20414;-85
2022/05/22 03:47:25;;;;;;;4.78;2.00;;;6.40;99.90;;;;;;5016684;28;20403;-83
2022/05/22 03:50:04;;;;;;;5.97;1.95;;;6.40;99.90;;;;;;5007410;28;20401;-84
2022/05/22 03:52:35;;;;;;;4.15;2.30;;;6.40;99.90;;;;;;4988903;28;20397;-84
2022/05/22 03:55:07;;;;;;;6.10;2.25;;;6.40;99.90;;;;;;5049946;28;20403;-86
2022/05/22 03:57:35;;;;;;;4.68;1.92;;;6.40;99.90;;;;;;4995237;28;20987;-83
2022/05/22 04:00:09;;;;;;;2.85;1.90;;;6.40;99.90;;;;;;5011484;28;20819;-84
2022/05/22 04:02:42;;;;;;;4.00;2.10;;;6.40;99.90;;;;;;5013742;28;20431;-84
2022/05/22 04:05:12;;;;;;;4.15;2.10;;;6.40;99.90;;;;;;5017755;28;20444;-84
2022/05/22 04:07:44;;;;;;;4.75;2.10;;;6.50;99.90;;;;;;5016496;28;20410;-85
2022/05/22 04:10:16;;;;;;;4.05;2.28;;;6.50;99.90;;;;;;5016768;28;20421;-84
2022/05/22 04:12:44;;;;;;;4.37;2.10;;;6.50;99.90;;;;;;5025011;28;20401;-84
2022/05/22 04:15:18;;;;;;;4.90;2.13;;;6.60;99.90;;;;;;5023773;28;20466;-86
2022/05/22 04:17:49;;;;;;;4.50;1.90;;;6.60;99.90;;;;;;5013372;28;20411;-84
2022/05/22 04:20:20;;;;;;;4.38;2.17;;;6.60;99.90;;;;;;5045903;28;20402;-84
2022/05/22 04:25:36;;;;;;;4.88;2.00;;;6.60;99.90;;;;;;5020375;28;20406;-84
2022/05/22 04:28:04;;;;;;;3.93;1.80;;;6.70;99.90;;;;;;5015543;28;20393;-84
2022/05/22 04:30:32;;;;;;;4.57;2.00;;;6.70;99.90;;;;;;5049032;28;20393;-84
2022/05/22 04:33:06;;;;;;;3.78;2.10;;;6.70;99.90;;;;;;5042641;28;20399;-85
2022/05/22 04:35:35;;;;;;;4.97;2.22;;;6.80;99.90;;;;;;5018755;28;20502;-85
2022/05/22 04:38:03;;;;;;;4.22;1.98;;;6.80;99.90;;;;;;5016068;28;20417;-84
2022/05/22 04:40:33;;;;;;;4.35;1.90;;;6.80;99.90;;;;;;5050049;28;20496;-84
2022/05/22 04:43:01;;;;;;;4.28;2.22;;;6.90;99.90;;;;;;5019724;28;20403;-85
2022/05/22 04:45:32;;;;;;;5.30;1.90;;;6.90;99.90;;;;;;5022115;28;20674;-85
2022/05/22 04:48:06;;;;;;;4.22;1.98;;;6.90;99.90;;;;;;5017538;28;20416;-84
2022/05/22 04:50:49;;;;;;;4.85;1.92;;;7.00;99.90;;;;;;5055879;28;20405;-86
2022/05/22 04:53:28;;;;;;;3.90;2.10;;;7.00;99.90;;;;;;5016715;28;21013;-84
2022/05/22 04:56:11;;;;;;;3.22;1.80;;;7.00;99.90;;;;;;5024716;28;20409;-85
2022/05/22 04:58:43;;;;;;;4.13;2.10;;;7.10;99.90;;;;;;5011669;28;20413;-85
2022/05/22 05:01:14;;;;;;;3.85;1.75;;;7.10;99.90;;;;;;5027408;28;20443;-85
2022/05/22 05:03:49;;;;;;;6.00;1.95;;;7.10;99.90;;;;;;5023482;28;20474;-85
2022/05/22 05:06:17;;;;;;;6.65;2.10;;;7.20;99.90;;;;;;5001427;28;20397;-83
2022/05/22 05:08:46;;;;;;;3.90;1.60;;;7.20;99.90;;;;;;5022281;28;20401;-85
2022/05/22 05:11:23;;;;;;;3.45;1.73;;;7.20;99.90;;;;;;5020473;28;20905;-84
2022/05/22 05:13:59;;;;;;;3.22;2.00;;;7.30;99.90;;;;;;5011497;28;20432;-85
2022/05/22 05:16:29;;;;;;;5.20;1.80;;;7.30;99.90;;;;;;5026764;28;20574;-84
2022/05/22 05:19:06;;;;;;;5.63;1.90;;;7.40;99.90;;;;;;5015058;28;20414;-84
2022/05/22 05:21:39;;;;;;;5.07;1.90;;;7.40;99.90;;;;;;5014064;28;21118;-85
2022/05/22 05:24:09;;;;;;;4.55;2.03;;;7.40;99.90;;;;;;5014029;28;20502;-85
2022/05/22 05:26:38;;;;;;;4.82;1.83;;;7.50;99.90;;;;;;5009321;28;20919;-84
2022/05/22 05:29:13;;;;;;;3.83;1.83;;;7.50;99.90;;;;;;5018383;28;20417;-84
2022/05/22 05:31:43;;;;;;;5.22;2.03;;;7.50;99.90;;;;;;4995868;28;20408;-86
2022/05/22 05:34:13;;;;;;;3.47;1.73;;;7.60;99.90;;;;;;5054150;28;20410;-86
2022/05/22 05:37:01;;;;;;;3.45;1.80;;;7.60;99.90;;;;;;5019422;28;20496;-86
2022/05/22 05:39:39;;;;;;;4.50;2.00;;;7.70;99.90;;;;;;5012710;28;20414;-86
2022/05/22 05:42:22;;;;;;;5.65;1.70;;;7.60;99.90;;;;;;5024588;28;20413;-85
2022/05/22 05:44:50;;;;;;;4.82;2.00;;;7.70;99.90;;;;;;5014178;28;20442;-85
2022/05/22 05:47:22;;;;;;;3.33;1.80;;;7.70;99.90;;;;;;5014177;28;20415;-85
2022/05/22 05:50:05;;;;;;;4.30;1.73;;;7.90;99.90;;;;;;5051266;28;20417;-86
2022/05/22 05:52:55;;;;;;;3.53;1.70;;;7.90;99.90;;;;;;5010095;28;20418;-84
2022/05/22 05:55:41;;;;;;;4.25;1.90;;;8.00;99.90;;;;;;5017114;28;20411;-84
2022/05/22 05:58:49;;;;;;;2.53;1.87;;;8.00;99.90;;;;;;4993571;28;20423;-85
2022/05/22 06:01:26;;;;;;;3.45;1.90;;;8.10;99.90;;;;;;5008017;28;20802;-86
2022/05/22 06:03:55;;;;;;;6.30;2.20;;;8.10;99.90;;;;;;5016159;28;20842;-85
2022/05/22 06:06:23;;;;;;;4.35;2.00;;;8.20;99.90;;;;;;5015674;28;20881;-85
2022/05/22 06:08:55;;;;;;;4.78;1.80;;;8.30;99.90;;;;;;5043614;28;20401;-85
2022/05/22 06:11:46;;;;;;;4.03;2.00;;;8.30;99.90;;;;;;5014792;28;20399;-85
2022/05/22 06:14:29;;;;;;;3.00;1.60;;;8.40;99.90;;;;;;5043537;28;20465;-86
2022/05/22 06:16:59;;;;;;;3.75;2.10;;;8.50;99.90;;;;;;4994910;28;20515;-85
2022/05/22 06:19:55;;;;;;;3.20;1.80;;;8.60;99.90;;;;;;5007660;28;20395;-86
2022/05/22 06:22:35;;;;;;;5.05;2.67;;;8.60;99.90;;;;;;5039548;28;20494;-85
2022/05/22 06:25:10;;;;;;;5.88;2.10;;;8.60;99.90;;;;;;5015454;28;20403;-84
2022/05/22 06:28:15;;;;;;;3.65;2.10;;;8.70;99.90;;;;;;5003603;28;20418;-84
2022/05/22 06:31:07;;;;;;;3.93;2.47;;;8.90;99.90;;;;;;5042475;28;20402;-87
2022/05/22 06:34:01;;;;;;;4.68;2.30;;;8.90;99.90;;;;;;5018909;28;20403;-86
2022/05/22 06:36:52;;;;;;;4.78;2.13;;;8.90;99.90;;;;;;5011241;28;20415;-85
2022/05/22 06:39:54;;;;;;;4.95;2.30;;;9.00;99.90;;;;;;4997906;28;20413;-85
2022/05/22 06:42:42;;;;;;;5.78;2.83;;;9.10;99.90;;;;;;5037264;28;20896;-85
2022/05/22 06:45:30;;;;;;;4.60;2.60;;;9.20;99.90;;;;;;5015808;28;20444;-85
2022/05/22 06:48:03;;;;;;;4.72;1.90;;;9.20;99.90;;;;;;5013834;28;20468;-84
2022/05/22 06:50:50;;;;;;;4.50;2.00;;;9.30;99.90;;;;;;5017340;28;20406;-85
2022/05/22 06:53:44;;;;;;;4.00;2.20;;;9.40;99.90;;;;;;5004243;28;20483;-84
2022/05/22 06:56:47;;;;;;;4.97;2.20;;;9.50;99.90;;;;;;4983893;28;20407;-85
2022/05/22 06:59:15;;;;;;;5.43;2.50;;;9.50;99.90;;;;;;5000478;28;20431;-84
2022/05/22 07:02:06;;;;;;;4.10;1.87;;;9.60;99.90;;;;;;5020998;28;20393;-85
2022/05/22 07:05:00;;;;;;;4.07;2.00;;;9.60;99.90;;;;;;5009818;28;20407;-85
2022/05/22 07:07:56;;;;;;;4.85;2.20;;;9.70;99.90;;;;;;5005351;28;20458;-84
2022/05/22 07:13:39;;;;;;;5.18;1.77;;;9.80;99.90;;;;;;5010624;28;21050;-85
2022/05/22 07:16:42;;;;;;;4.07;2.00;;;9.90;99.90;;;;;;5015660;28;20404;-83
2022/05/22 07:19:19;;;;;;;4.18;1.98;;;10.00;99.90;;;;;;5018075;28;20909;-84
2022/05/22 07:22:10;;;;;;;7.45;1.90;;;10.00;99.90;;;;;;5015601;28;20409;-84
2022/05/22 07:24:46;;;;;;;3.67;1.83;;;10.10;99.90;;;;;;5011966;28;20427;-85
2022/05/22 07:27:27;;;;;;;3.85;1.83;;;10.20;99.90;;;;;;5018507;28;20926;-85
2022/05/22 07:30:05;;;;;;;7.70;2.17;;;10.20;99.90;;;;;;5006312;28;20447;-85
2022/05/22 07:32:59;;;;;;;4.07;1.80;;;10.30;99.90;;;;;;5026116;28;20399;-85
2022/05/22 07:35:33;;;;;;;5.38;2.05;;;10.40;99.90;;;;;;5015913;28;20464;-86
2022/05/22 07:38:19;;;;;;;3.35;1.85;;;10.40;99.90;;;;;;5006707;28;20494;-84
2022/05/22 07:40:53;;;;;;;4.13;2.07;;;10.40;99.90;;;;;;5018211;28;20406;-85
2022/05/22 07:43:40;;;;;;;5.50;1.90;;;10.40;99.90;;;;;;5044277;28;20407;-86
2022/05/22 07:46:25;;;;;;;5.90;2.20;;;10.50;99.90;;;;;;5010538;28;20427;-86
2022/05/22 07:49:07;;;;;;;5.57;2.00;;;10.50;99.90;;;;;;5017592;28;20430;-85
2022/05/22 07:51:45;;;;;;;4.20;2.15;;;10.70;99.90;;;;;;5010791;28;20558;-88
2022/05/22 07:54:56;;;;;;;4.15;1.98;;;10.70;99.90;;;;;;5039129;28;20393;-85
2022/05/22 07:58:00;;;;;;;4.13;1.80;;;10.80;99.90;;;;;;4988715;28;20397;-86
2022/05/22 08:01:07;;;;;;;6.35;1.85;;;10.80;99.90;;;;;;4978145;28;20409;-85
2022/05/22 08:03:54;;;;;;;3.70;2.10;;;10.80;99.90;;;;;;4979423;28;21028;-85
2022/05/22 08:07:01;;;;;;;4.85;1.73;;;10.90;99.90;;;;;;5046512;28;20875;-84
2022/05/22 08:10:07;;;;;;;3.58;1.75;;;11.10;99.90;;;;;;5036718;28;21127;-85
2022/05/22 08:12:43;;;;;;;3.10;1.67;;;11.10;99.90;;;;;;5021923;28;20899;-86
2022/05/22 08:15:21;;;;;;;4.32;1.70;;;11.10;99.90;;;;;;5014084;28;20407;-86
2022/05/22 08:17:52;;;;;;;2.75;1.77;;;11.10;99.90;;;;;;5007986;28;20457;-86
2022/05/22 08:20:21;;;;;;;4.97;1.90;;;11.20;99.90;;;;;;4997872;28;20775;-85
2022/05/22 08:23:22;;;;;;;4.07;1.70;;;11.30;99.90;;;;;;5014613;28;20482;-86
2022/05/22 08:26:00;;;;;;;4.85;1.70;;;11.40;99.90;;;;;;5034813;28;20406;-86
2022/05/22 08:28:31;;;;;;;4.07;1.83;;;11.40;99.90;;;;;;5048608;28;20903;-85
2022/05/22 08:31:00;;;;;;;5.38;1.50;;;11.50;99.90;;;;;;5015760;28;20407;-85
2022/05/22 08:33:29;;;;;;;2.83;1.48;;;11.50;99.90;;;;;;5016844;28;20410;-86
2022/05/22 08:35:59;;;;;;;3.27;1.70;;;11.60;99.90;;;;;;5009830;28;20760;-86
2022/05/22 08:38:27;;;;;;;3.38;1.40;;;11.60;99.90;;;;;;5014880;28;20406;-85
2022/05/22 08:41:13;;;;;;;5.38;1.70;;;11.70;99.90;;;;;;5014438;28;20409;-86
2022/05/22 08:44:06;;;;;;;4.40;1.67;;;11.90;99.90;;;;;;5046931;28;20426;-86
2022/05/22 08:47:03;;;;;;;3.10;1.75;;;12.00;99.90;;;;;;5012517;28;20388;-87
2022/05/22 08:49:33;;;;;;;4.00;1.65;;;12.00;99.90;;;;;;5004066;28;20401;-86
2022/05/22 08:52:26;;;;;;;2.80;1.70;;;12.10;99.90;;;;;;5016574;28;20891;-85
2022/05/22 08:55:15;;;;;;;4.32;1.63;;;12.30;99.90;;;;;;4997673;28;20391;-86
2022/05/22 09:00:55;;;;;;;3.38;1.90;;;12.30;99.90;;;;;;5006411;28;20402;-85
2022/05/22 09:03:30;;;;;;;3.85;1.60;;;12.40;99.90;;;;;;5021156;28;20773;-86
2022/05/22 09:06:04;;;;;;;4.00;1.60;;;12.30;99.90;;;;;;5012169;28;20397;-86
2022/05/22 09:08:44;;;;;;;2.10;1.50;;;12.60;99.90;;;;;;5016375;28;20885;-86
2022/05/22 09:11:51;;;;;;;3.33;1.80;;;12.60;99.90;;;;;;5017461;28;20417;-85
2022/05/22 09:14:24;;;;;;;4.22;1.70;;;12.70;99.90;;;;;;5022394;28;20407;-87
2022/05/22 09:16:55;;;;;;;5.70;1.80;;;12.60;99.90;;;;;;5038947;28;20874;-87
2022/05/22 09:19:56;;;;;;;3.45;1.67;;;12.60;99.90;;;;;;5019707;28;20430;-86
2022/05/22 09:22:31;;;;;;;2.85;1.48;;;12.60;99.90;;;;;;5027652;28;20737;-86
2022/05/22 09:25:10;;;;;;;3.72;1.85;;;12.60;99.90;;;;;;5020195;28;20390;-87
2022/05/22 09:27:59;;;;;;;6.80;1.92;;;12.70;99.90;;;;;;5015644;28;20446;-86
2022/05/22 09:30:48;;;;;;;3.65;1.55;;;12.70;99.90;;;;;;5013906;28;20481;-87
2022/05/22 09:33:36;;;;;;;3.13;1.80;;;12.70;99.90;;;;;;5018984;28;20784;-86
2022/05/22 09:36:24;;;;;;;4.28;1.60;;;12.70;99.90;;;;;;5017899;28;20381;-86
2022/05/22 09:39:49;;;;;;;2.78;1.60;;;12.70;99.90;;;;;;5024442;28;20406;-87
2022/05/22 09:42:47;;;;;;;6.30;1.80;;;13.00;99.90;;;;;;5012380;28;20492;-86
2022/05/22 09:45:15;;;;;;;4.57;1.50;;;13.20;99.90;;;;;;5016027;28;20401;-86
2022/05/22 09:48:19;;;;;;;3.10;1.90;;;13.10;99.90;;;;;;5041077;28;20401;-84
2022/05/22 09:51:00;;;;;;;5.80;1.73;;;13.00;99.90;;;;;;5019032;28;20445;-84
2022/05/22 09:54:08;;;;;;;8.00;1.73;;;12.90;99.90;;;;;;5021901;28;20472;-88
2022/05/22 09:57:06;;;;;;;4.28;1.85;;;13.00;99.90;;;;;;5016313;28;20486;-87
2022/05/22 09:59:50;;;;;;;3.28;1.58;;;12.90;99.90;;;;;;4994364;28;20409;-85
2022/05/22 10:02:27;;;;;;;3.75;1.90;;;13.00;99.90;;;;;;5048839;28;20431;-87
2022/05/22 10:05:01;;;;;;;5.63;1.73;;;13.20;99.90;;;;;;5018415;28;20806;-86
2022/05/22 10:08:07;;;;;;;5.60;1.90;;;13.30;99.90;;;;;;5008714;28;20770;-87
2022/05/22 10:11:02;;;;;;;4.93;1.80;;;13.40;99.90;;;;;;5011989;28;20438;-88
2022/05/22 10:13:44;;;;;;;4.78;1.50;;;13.30;99.90;;;;;;5026764;28;20436;-88
2022/05/22 10:16:42;;;;;;;3.80;1.60;;;13.10;99.90;;;;;;5006176;28;20851;-87
2022/05/22 10:19:20;;;;;;;2.13;1.50;;;13.30;99.90;;;;;;5010870;28;20460;-88
2022/05/22 10:22:03;;;;;;;2.63;1.58;;;13.30;99.90;;;;;;5016977;28;20434;-88
2022/05/22 10:24:42;;;;;;;2.60;1.50;;;13.40;99.90;;;;;;5025124;28;20408;-87
2022/05/22 10:27:23;;;;;;;2.25;1.40;;;13.60;99.90;;;;;;5010785;28;20402;-86
2022/05/22 10:30:00;;;;;;;4.05;1.40;;;13.60;99.90;;;;;;5009008;28;20427;-88
2022/05/22 10:32:58;;;;;;;2.55;1.50;;;13.80;99.90;;;;;;5009790;28;20948;-88
2022/05/22 10:35:38;;;;;;;3.15;1.80;;;13.80;99.90;;;;;;5008121;28;20407;-88
2022/05/22 10:38:23;;;;;;;2.70;1.40;;;13.80;99.90;;;;;;5040856;28;20462;-88
2022/05/22 10:43:48;;;;;;;3.13;1.52;;;13.80;99.90;;;;;;5012955;28;20504;-88
2022/05/22 10:46:15;;;;;;;3.90;2.00;;;13.70;99.90;;;;;;5012394;28;20902;-87
2022/05/22 10:48:54;;;;;;;3.65;1.70;;;13.60;99.90;;;;;;5020538;28;20397;-87
2022/05/22 10:51:25;;;;;;;2.08;1.40;;;13.60;99.90;;;;;;5011746;28;20399;-89
2022/05/22 10:53:58;;;;;;;4.10;1.50;;;13.50;99.90;;;;;;5010043;28;20828;-88
2022/05/22 10:56:32;;;;;;;3.92;1.80;;;13.50;99.90;;;;;;5017364;28;20433;-89
2022/05/22 10:59:07;;;;;;;2.10;1.42;;;13.70;99.90;;;;;;5011845;28;20444;-88
2022/05/22 11:01:40;;;;;;;2.83;1.50;;;13.80;99.90;;;;;;5006429;28;20403;-87
2022/05/22 11:04:14;;;;;;;2.53;1.70;;;13.70;99.90;;;;;;5016977;28;20399;-87
2022/05/22 11:06:56;;;;;;;3.13;1.65;;;13.70;99.90;;;;;;5017472;28;20398;-87
2022/05/22 11:09:29;;;;;;;2.35;1.45;;;13.90;99.90;;;;;;5007471;28;20422;-87
2022/05/22 11:12:13;;;;;;;2.78;1.60;;;14.20;99.90;;;;;;5015981;28;20895;-88
2022/05/22 11:14:41;;;;;;;3.40;1.50;;;14.50;99.90;;;;;;5020229;28;20435;-89
2022/05/22 11:17:19;;;;;;;3.63;1.50;;;14.60;99.90;;;;;;5008195;28;20924;-86
2022/05/22 11:19:54;;;;;;;4.47;1.58;;;14.70;99.90;;;;;;5011348;28;20415;-88
2022/05/22 11:22:31;;;;;;;3.13;1.60;;;14.80;99.90;;;;;;5012510;28;20431;-90
2022/05/22 11:25:22;;;;;;;3.28;1.50;;;14.90;99.90;;;;;;5013445;28;20572;-88
2022/05/22 11:28:04;;;;;;;3.55;1.67;;;14.80;99.90;;;;;;5005680;28;20389;-88
2022/05/22 11:30:45;;;;;;;4.03;1.50;;;14.80;99.90;;;;;;5012007;28;20484;-88
2022/05/22 11:33:30;;;;;;;5.67;1.50;;;14.70;99.90;;;;;;5049577;28;20855;-88
2022/05/22 11:36:26;;;;;;;2.30;1.43;;;14.60;99.90;;;;;;5013718;28;20413;-87
2022/05/22 11:38:56;;;;;;;3.83;1.40;;;14.50;99.90;;;;;;5044630;28;20454;-88
2022/05/22 11:41:28;;;;;;;3.22;1.50;;;14.40;99.90;;;;;;5047889;28;21025;-89
2022/05/22 11:44:18;;;;;;;3.33;1.60;;;14.30;99.90;;;;;;5040660;28;20397;-87
2022/05/22 11:47:20;;;;;;;3.10;1.58;;;14.30;99.90;;;;;;5007356;28;20440;-89
2022/05/22 11:50:15;;;;;;;3.42;1.50;;;14.30;99.90;;;;;;5015487;28;20413;-89
2022/05/22 11:53:08;;;;;;;2.38;1.58;;;14.70;99.90;;;;;;5007151;28;20886;-86
2022/05/22 11:56:09;;;;;;;3.80;1.50;;;14.70;99.90;;;;;;5008296;28;20440;-88
2022/05/22 11:59:18;;;;;;;3.50;1.35;;;14.90;99.90;;;;;;5004461;28;20407;-87
2022/05/22 12:02:25;;;;;;;1.63;1.30;;;15.10;99.90;;;;;;5000505;28;20405;-87
2022/05/22 12:05:15;;;;;;;4.65;1.42;;;15.00;99.90;;;;;;5000530;28;20480;-88
2022/05/22 12:08:07;;;;;;;3.10;1.52;;;15.00;99.90;;;;;;4999134;28;20907;-89
2022/05/22 12:11:16;;;;;;;2.35;1.30;;;14.90;99.90;;;;;;4997295;28;20883;-87
2022/05/22 12:13:52;;;;;;;2.65;1.23;;;14.80;99.90;;;;;;5010782;27;20417;-88
2022/05/22 12:16:28;;;;;;;4.00;1.40;;;14.90;99.90;;;;;;5008233;28;20478;-89
2022/05/22 12:19:16;;;;;;;4.43;1.33;;;15.10;99.90;;;;;;5004004;28;20411;-88
2022/05/22 12:25:19;;;;;;;3.90;1.50;;;15.00;99.90;;;;;;5015490;28;20901;-88
2022/05/22 12:27:48;;;;;;;2.92;1.40;;;14.70;99.90;;;;;;4999519;28;20875;-89
2022/05/22 12:30:27;;;;;;;3.30;1.40;;;14.60;99.90;;;;;;5005718;28;20461;-89
2022/05/22 12:33:06;;;;;;;2.60;1.30;;;14.50;99.90;;;;;;5036639;28;20401;-89
2022/05/22 12:35:36;;;;;;;2.65;1.40;;;14.50;99.90;;;;;;5036235;28;20415;-90
2022/05/22 12:38:07;;;;;;;2.88;1.67;;;14.70;99.90;;;;;;5008544;28;20458;-90
2022/05/22 12:40:46;;;;;;;3.78;1.30;;;15.10;99.90;;;;;;5008345;28;20442;-89
2022/05/22 12:43:22;;;;;;;3.60;1.40;;;15.30;99.90;;;;;;5015262;28;20482;-89
2022/05/22 12:46:10;;;;;;;3.67;1.50;;;15.60;99.90;;;;;;5019093;28;20404;-89
2022/05/22 12:48:44;;;;;;;3.97;1.55;;;15.90;99.90;;;;;;5013328;28;20412;-87
2022/05/22 12:51:32;;;;;;;3.40;1.55;;;15.90;99.90;;;;;;5010724;28;20395;-89
2022/05/22 12:54:23;;;;;;;3.15;1.40;;;15.50;99.90;;;;;;5015529;28;20446;-88
2022/05/22 12:56:53;;;;;;;2.55;1.40;;;15.30;99.90;;;;;;5015535;28;20401;-87
2022/05/22 12:59:28;;;;;;;4.57;1.48;;;15.30;99.90;;;;;;5011458;28;21081;-89
2022/05/22 13:01:58;;;;;;;2.80;1.43;;;15.30;99.90;;;;;;5009518;28;20492;-88
2022/05/22 13:04:30;;;;;;;2.70;1.20;;;15.50;99.90;;;;;;5020078;28;20987;-88
2022/05/22 13:07:03;;;;;;;3.20;1.38;;;15.50;99.90;;;;;;5003391;28;20952;-88
2022/05/22 13:09:31;;;;;;;3.25;1.50;;;15.90;99.90;;;;;;5042636;28;20786;-87
2022/05/22 13:12:26;;;;;;;3.70;1.38;;;16.00;99.90;;;;;;5022939;28;20403;-88
2022/05/22 13:15:01;;;;;;;2.53;1.47;;;16.00;99.90;;;;;;5032802;28;20423;-88
2022/05/22 13:17:50;;;;;;;2.88;1.40;;;15.70;99.90;;;;;;5023977;28;20447;-87
2022/05/22 13:20:30;;;;;;;2.70;1.40;;;15.60;99.90;;;;;;5020124;28;20401;-88
2022/05/22 13:23:04;;;;;;;3.58;1.50;;;15.40;99.90;;;;;;5022082;28;20383;-88
2022/05/22 13:25:55;;;;;;;3.30;1.40;;;15.50;99.90;;;;;;5018883;28;20398;-88
2022/05/22 13:28:47;;;;;;;2.50;1.42;;;15.70;99.90;;;;;;4996382;28;20427;-89
2022/05/22 13:31:51;;;;;;;4.18;1.60;;;15.70;99.90;;;;;;5019789;28;20404;-88
2022/05/22 13:34:39;;;;;;;2.53;1.35;;;15.90;99.90;;;;;;5012613;28;20452;-86
2022/05/22 13:37:09;;;;;;;3.13;1.63;;;16.20;99.90;;;;;;4998067;28;20472;-88
2022/05/22 13:39:57;;;;;;;4.65;1.50;;;16.10;99.90;;;;;;5011610;28;20467;-88
2022/05/22 13:42:49;;;;;;;1.75;1.30;;;16.30;99.90;;;;;;5030717;28;20402;-87
2022/05/22 13:45:41;;;;;;;3.28;1.20;;;16.00;99.90;;;;;;5051714;28;20397;-88
2022/05/22 13:48:29;;;;;;;2.57;1.40;;;15.70;99.90;;;;;;5009444;28;20832;-88
2022/05/22 13:54:13;;;;;;;3.13;1.40;;;15.50;99.90;;;;;;5018247;28;20400;-89
2022/05/22 13:57:05;;;;;;;2.10;1.30;;;15.90;99.90;;;;;;5014531;28;20734;-88
2022/05/22 13:59:53;;;;;;;3.97;1.65;;;15.80;99.90;;;;;;5011236;28;20407;-87
2022/05/22 14:02:27;;;;;;;3.30;1.58;;;15.70;99.90;;;;;;5020438;28;20401;-87
2022/05/22 14:04:56;;;;;;;3.47;1.50;;;15.50;99.90;;;;;;5017602;28;20403;-87
2022/05/22 14:07:42;;;;;;;3.70;1.40;;;15.30;99.90;;;;;;5018493;28;20402;-89
2022/05/22 14:10:10;;;;;;;11.55;3.55;;;15.20;99.90;;;;;;5011064;28;20809;-88
2022/05/22 14:12:46;;;;;;;7.63;1.95;;;15.30;99.90;;;;;;5020032;28;21004;-87